sensor_id;sensor_type;location;lat;lon;timestamp;pressure;altitude;pressure_sealevel;temperature
50496;BMP280;38806;51.554;5.704;2022-07-09T00:01:07;101853.38;;;16.02
50496;BMP280;38806;51.554;5.704;2022-07-09T00:03:07;101840.06;;;16.04
50496;BMP280;38806;51.554;5.704;2022-07-09T00:05:08;101855.59;;;16.04
50496;BMP280;38806;51.554;5.704;2022-07-09T00:07:08;101938.16;;;15.75
50496;BMP280;38806;51.554;5.704;2022-07-09T00:09:09;101977.25;;;15.46
50496;BMP280;38806;51.554;5.704;2022-07-09T00:11:09;101900.31;;;15.43
50496;BMP280;38806;51.554;5.704;2022-07-09T00:13:10;101797.81;;;15.64
50496;BMP280;38806;51.554;5.704;2022-07-09T00:15:11;101845.84;;;15.47
50496;BMP280;38806;51.554;5.704;2022-07-09T00:17:14;101798.03;;;15.50
50496;BMP280;38806;51.554;5.704;2022-07-09T00:19:17;101859.53;;;15.21
50496;BMP280;38806;51.554;5.704;2022-07-09T00:21:21;101808.31;;;15.29
50496;BMP280;38806;51.554;5.704;2022-07-09T00:23:22;101906.59;;;14.87
50496;BMP280;38806;51.554;5.704;2022-07-09T00:25:22;101958.34;;;14.63
50496;BMP280;38806;51.554;5.704;2022-07-09T00:27:22;101926.66;;;14.69
50496;BMP280;38806;51.554;5.704;2022-07-09T00:29:23;101939.19;;;14.66
50496;BMP280;38806;51.554;5.704;2022-07-09T00:31:23;102017.69;;;14.40
50496;BMP280;38806;51.554;5.704;2022-07-09T00:33:24;102065.47;;;14.23
50496;BMP280;38806;51.554;5.704;2022-07-09T00:35:24;102082.19;;;14.07
50496;BMP280;38806;51.554;5.704;2022-07-09T00:37:31;102082.06;;;13.96
50496;BMP280;38806;51.554;5.704;2022-07-09T00:39:31;102064.47;;;13.86
50496;BMP280;38806;51.554;5.704;2022-07-09T00:41:32;102058.41;;;13.76
50496;BMP280;38806;51.554;5.704;2022-07-09T00:43:32;102059.06;;;13.71
50496;BMP280;38806;51.554;5.704;2022-07-09T00:45:39;102050.09;;;13.65
50496;BMP280;38806;51.554;5.704;2022-07-09T00:47:39;102046.78;;;13.55
50496;BMP280;38806;51.554;5.704;2022-07-09T00:49:41;102042.94;;;13.47
50496;BMP280;38806;51.554;5.704;2022-07-09T00:51:42;102051.75;;;13.42
50496;BMP280;38806;51.554;5.704;2022-07-09T00:53:44;102032.97;;;13.53
50496;BMP280;38806;51.554;5.704;2022-07-09T00:55:48;101871.91;;;14.07
50496;BMP280;38806;51.554;5.704;2022-07-09T00:57:51;101896.06;;;13.91
50496;BMP280;38806;51.554;5.704;2022-07-09T00:59:58;101934.88;;;13.67
50496;BMP280;38806;51.554;5.704;2022-07-09T01:02:00;101985.72;;;13.49
50496;BMP280;38806;51.554;5.704;2022-07-09T01:04:04;101970.53;;;13.51
50496;BMP280;38806;51.554;5.704;2022-07-09T01:06:05;102015.19;;;13.32
50496;BMP280;38806;51.554;5.704;2022-07-09T01:08:08;102018.66;;;13.32
50496;BMP280;38806;51.554;5.704;2022-07-09T01:10:24;102044.25;;;13.22
50496;BMP280;38806;51.554;5.704;2022-07-09T01:12:24;102037.94;;;13.25
50496;BMP280;38806;51.554;5.704;2022-07-09T01:14:29;101990.78;;;13.41
50496;BMP280;38806;51.554;5.704;2022-07-09T01:16:33;102022.00;;;13.27
50496;BMP280;38806;51.554;5.704;2022-07-09T01:18:34;102021.72;;;13.25
50496;BMP280;38806;51.554;5.704;2022-07-09T01:20:35;102003.34;;;13.29
50496;BMP280;38806;51.554;5.704;2022-07-09T01:22:35;101996.19;;;13.26
50496;BMP280;38806;51.554;5.704;2022-07-09T01:24:36;101997.56;;;13.22
50496;BMP280;38806;51.554;5.704;2022-07-09T01:26:36;101967.66;;;13.25
50496;BMP280;38806;51.554;5.704;2022-07-09T01:28:36;101895.19;;;13.59
50496;BMP280;38806;51.554;5.704;2022-07-09T01:30:39;101926.81;;;13.38
50496;BMP280;38806;51.554;5.704;2022-07-09T01:32:45;101916.22;;;13.34
50496;BMP280;38806;51.554;5.704;2022-07-09T01:34:48;101932.53;;;13.25
50496;BMP280;38806;51.554;5.704;2022-07-09T01:36:54;101933.47;;;13.22
50496;BMP280;38806;51.554;5.704;2022-07-09T01:38:57;101970.38;;;13.11
50496;BMP280;38806;51.554;5.704;2022-07-09T01:40:58;101984.72;;;13.02
50496;BMP280;38806;51.554;5.704;2022-07-09T01:42:58;101930.03;;;13.22
50496;BMP280;38806;51.554;5.704;2022-07-09T01:44:59;101938.81;;;13.17
50496;BMP280;38806;51.554;5.704;2022-07-09T01:47:05;101965.06;;;13.01
50496;BMP280;38806;51.554;5.704;2022-07-09T01:49:06;101992.91;;;12.93
50496;BMP280;38806;51.554;5.704;2022-07-09T01:51:06;102009.00;;;12.87
50496;BMP280;38806;51.554;5.704;2022-07-09T01:53:07;101929.13;;;13.10
50496;BMP280;38806;51.554;5.704;2022-07-09T01:55:08;102007.22;;;12.84
50496;BMP280;38806;51.554;5.704;2022-07-09T01:57:08;102008.91;;;12.82
50496;BMP280;38806;51.554;5.704;2022-07-09T01:59:08;102034.22;;;12.69
50496;BMP280;38806;51.554;5.704;2022-07-09T02:01:24;102018.88;;;12.76
50496;BMP280;38806;51.554;5.704;2022-07-09T02:03:27;102010.78;;;12.76
50496;BMP280;38806;51.554;5.704;2022-07-09T02:05:43;102038.03;;;12.63
50496;BMP280;38806;51.554;5.704;2022-07-09T02:07:43;102061.91;;;12.55
50496;BMP280;38806;51.554;5.704;2022-07-09T02:09:50;102093.59;;;12.46
50496;BMP280;38806;51.554;5.704;2022-07-09T02:11:50;102128.72;;;12.37
50496;BMP280;38806;51.554;5.704;2022-07-09T02:13:54;102147.47;;;12.31
50496;BMP280;38806;51.554;5.704;2022-07-09T02:15:54;102180.63;;;12.22
50496;BMP280;38806;51.554;5.704;2022-07-09T02:17:55;102192.94;;;12.14
50496;BMP280;38806;51.554;5.704;2022-07-09T02:19:58;102166.88;;;12.20
50496;BMP280;38806;51.554;5.704;2022-07-09T02:22:02;102141.53;;;12.27
50496;BMP280;38806;51.554;5.704;2022-07-09T02:24:06;102109.25;;;12.32
50496;BMP280;38806;51.554;5.704;2022-07-09T02:26:06;102091.56;;;12.31
50496;BMP280;38806;51.554;5.704;2022-07-09T02:28:13;102100.00;;;12.24
50496;BMP280;38806;51.554;5.704;2022-07-09T02:30:20;102102.25;;;12.17
50496;BMP280;38806;51.554;5.704;2022-07-09T02:32:21;102081.13;;;12.15
50496;BMP280;38806;51.554;5.704;2022-07-09T02:34:21;102095.28;;;12.10
50496;BMP280;38806;51.554;5.704;2022-07-09T02:36:22;102106.81;;;12.01
50496;BMP280;38806;51.554;5.704;2022-07-09T02:38:23;102110.72;;;12.00
50496;BMP280;38806;51.554;5.704;2022-07-09T02:40:23;102126.97;;;11.91
50496;BMP280;38806;51.554;5.704;2022-07-09T02:42:23;102131.72;;;11.87
50496;BMP280;38806;51.554;5.704;2022-07-09T02:44:24;102116.72;;;11.95
50496;BMP280;38806;51.554;5.704;2022-07-09T02:46:24;102002.47;;;12.41
50496;BMP280;38806;51.554;5.704;2022-07-09T02:48:25;101989.72;;;12.41
50496;BMP280;38806;51.554;5.704;2022-07-09T02:50:34;101995.94;;;12.32
50496;BMP280;38806;51.554;5.704;2022-07-09T02:52:34;102002.06;;;12.33
50496;BMP280;38806;51.554;5.704;2022-07-09T02:54:35;101944.97;;;12.49
50496;BMP280;38806;51.554;5.704;2022-07-09T02:56:35;101974.63;;;12.34
50496;BMP280;38806;51.554;5.704;2022-07-09T02:58:36;101906.13;;;12.56
50496;BMP280;38806;51.554;5.704;2022-07-09T03:00:37;101877.81;;;12.66
50496;BMP280;38806;51.554;5.704;2022-07-09T03:02:39;101809.94;;;12.88
50496;BMP280;38806;51.554;5.704;2022-07-09T03:04:40;101857.50;;;12.71
50496;BMP280;38806;51.554;5.704;2022-07-09T03:06:41;101861.88;;;12.68
50496;BMP280;38806;51.554;5.704;2022-07-09T03:08:42;101867.75;;;12.66
50496;BMP280;38806;51.554;5.704;2022-07-09T03:10:49;101834.53;;;12.75
50496;BMP280;38806;51.554;5.704;2022-07-09T03:12:49;101899.22;;;12.55
50496;BMP280;38806;51.554;5.704;2022-07-09T03:14:56;101914.28;;;12.47
50496;BMP280;38806;51.554;5.704;2022-07-09T03:17:09;101894.28;;;12.53
50496;BMP280;38806;51.554;5.704;2022-07-09T03:19:09;101923.75;;;12.42
50496;BMP280;38806;51.554;5.704;2022-07-09T03:21:09;101940.47;;;12.31
50496;BMP280;38806;51.554;5.704;2022-07-09T03:23:11;101921.69;;;12.37
50496;BMP280;38806;51.554;5.704;2022-07-09T03:25:22;101945.13;;;12.31
50496;BMP280;38806;51.554;5.704;2022-07-09T03:27:23;101980.88;;;12.17
50496;BMP280;38806;51.554;5.704;2022-07-09T03:29:23;101946.78;;;12.28
50496;BMP280;38806;51.554;5.704;2022-07-09T03:31:24;101950.34;;;12.34
50496;BMP280;38806;51.554;5.704;2022-07-09T03:33:24;101959.06;;;12.29
50496;BMP280;38806;51.554;5.704;2022-07-09T03:35:24;101852.69;;;12.75
50496;BMP280;38806;51.554;5.704;2022-07-09T03:37:25;101763.97;;;13.02
50496;BMP280;38806;51.554;5.704;2022-07-09T03:39:25;101796.97;;;12.92
50496;BMP280;38806;51.554;5.704;2022-07-09T03:41:26;101593.97;;;13.71
50496;BMP280;38806;51.554;5.704;2022-07-09T03:43:26;101545.22;;;13.97
50496;BMP280;38806;51.554;5.704;2022-07-09T03:45:27;101483.09;;;14.19
50496;BMP280;38806;51.554;5.704;2022-07-09T03:47:33;101489.78;;;14.24
50496;BMP280;38806;51.554;5.704;2022-07-09T03:49:34;101537.41;;;14.04
50496;BMP280;38806;51.554;5.704;2022-07-09T03:51:34;101547.22;;;14.02
50496;BMP280;38806;51.554;5.704;2022-07-09T03:53:35;101499.34;;;14.19
50496;BMP280;38806;51.554;5.704;2022-07-09T03:55:36;101555.56;;;13.98
50496;BMP280;38806;51.554;5.704;2022-07-09T03:57:37;101605.59;;;13.83
50496;BMP280;38806;51.554;5.704;2022-07-09T03:59:38;101640.34;;;13.64
50496;BMP280;38806;51.554;5.704;2022-07-09T04:01:39;101642.88;;;13.67
50496;BMP280;38806;51.554;5.704;2022-07-09T04:03:39;101475.25;;;14.27
50496;BMP280;38806;51.554;5.704;2022-07-09T04:05:40;101519.25;;;14.16
50496;BMP280;38806;51.554;5.704;2022-07-09T04:08:04;101530.53;;;14.09
50496;BMP280;38806;51.554;5.704;2022-07-09T04:10:05;101557.28;;;14.01
50496;BMP280;38806;51.554;5.704;2022-07-09T04:12:06;101679.38;;;13.57
50496;BMP280;38806;51.554;5.704;2022-07-09T04:14:07;101737.06;;;13.28
50496;BMP280;38806;51.554;5.704;2022-07-09T04:16:08;101745.09;;;13.23
50496;BMP280;38806;51.554;5.704;2022-07-09T04:18:08;101737.25;;;13.25
50496;BMP280;38806;51.554;5.704;2022-07-09T04:20:09;101725.50;;;13.28
50496;BMP280;38806;51.554;5.704;2022-07-09T04:22:10;101735.03;;;13.23
50496;BMP280;38806;51.554;5.704;2022-07-09T04:24:10;101739.88;;;13.19
50496;BMP280;38806;51.554;5.704;2022-07-09T04:26:11;101762.09;;;13.09
50496;BMP280;38806;51.554;5.704;2022-07-09T04:28:11;101790.25;;;13.02
50496;BMP280;38806;51.554;5.704;2022-07-09T04:30:11;101786.34;;;13.03
50496;BMP280;38806;51.554;5.704;2022-07-09T04:32:12;101803.75;;;13.02
50496;BMP280;38806;51.554;5.704;2022-07-09T04:34:13;101604.38;;;13.78
50496;BMP280;38806;51.554;5.704;2022-07-09T04:36:22;101524.16;;;14.12
50496;BMP280;38806;51.554;5.704;2022-07-09T04:38:23;101477.50;;;14.34
50496;BMP280;38806;51.554;5.704;2022-07-09T04:40:29;101499.91;;;14.34
50496;BMP280;38806;51.554;5.704;2022-07-09T04:42:32;101501.38;;;14.35
50496;BMP280;38806;51.554;5.704;2022-07-09T04:44:33;101543.13;;;14.18
50496;BMP280;38806;51.554;5.704;2022-07-09T04:46:33;101632.16;;;13.84
50496;BMP280;38806;51.554;5.704;2022-07-09T04:48:34;101667.22;;;13.67
50496;BMP280;38806;51.554;5.704;2022-07-09T04:50:37;101683.13;;;13.65
50496;BMP280;38806;51.554;5.704;2022-07-09T04:53:03;101690.25;;;13.63
50496;BMP280;38806;51.554;5.704;2022-07-09T04:55:09;101728.19;;;13.48
50496;BMP280;38806;51.554;5.704;2022-07-09T04:57:16;101757.03;;;13.36
50496;BMP280;38806;51.554;5.704;2022-07-09T04:59:23;101729.88;;;13.46
50496;BMP280;38806;51.554;5.704;2022-07-09T05:01:23;101719.16;;;13.57
50496;BMP280;38806;51.554;5.704;2022-07-09T05:03:24;101701.78;;;13.63
50496;BMP280;38806;51.554;5.704;2022-07-09T05:05:25;101734.13;;;13.52
50496;BMP280;38806;51.554;5.704;2022-07-09T05:07:25;101737.34;;;13.56
50496;BMP280;38806;51.554;5.704;2022-07-09T05:09:26;101736.13;;;13.57
50496;BMP280;38806;51.554;5.704;2022-07-09T05:11:27;101719.78;;;13.66
50496;BMP280;38806;51.554;5.704;2022-07-09T05:13:27;101672.53;;;13.88
50496;BMP280;38806;51.554;5.704;2022-07-09T05:15:28;101587.88;;;14.19
50496;BMP280;38806;51.554;5.704;2022-07-09T05:17:35;101525.06;;;14.52
50496;BMP280;38806;51.554;5.704;2022-07-09T05:19:35;101453.22;;;14.84
50496;BMP280;38806;51.554;5.704;2022-07-09T05:21:36;101412.34;;;15.04
50496;BMP280;38806;51.554;5.704;2022-07-09T05:23:37;101376.34;;;15.26
50496;BMP280;38806;51.554;5.704;2022-07-09T05:25:37;101360.78;;;15.38
50496;BMP280;38806;51.554;5.704;2022-07-09T05:27:45;101315.81;;;15.65
50496;BMP280;38806;51.554;5.704;2022-07-09T05:29:46;101264.34;;;15.95
50496;BMP280;38806;51.554;5.704;2022-07-09T05:31:47;101237.75;;;16.17
50496;BMP280;38806;51.554;5.704;2022-07-09T05:33:48;101283.66;;;16.15
50496;BMP280;38806;51.554;5.704;2022-07-09T05:35:48;101309.97;;;16.26
50496;BMP280;38806;51.554;5.704;2022-07-09T05:37:49;101343.00;;;16.30
50496;BMP280;38806;51.554;5.704;2022-07-09T05:39:50;101392.13;;;16.32
50496;BMP280;38806;51.554;5.704;2022-07-09T05:41:53;101389.72;;;16.59
50496;BMP280;38806;51.554;5.704;2022-07-09T05:43:57;101393.72;;;16.76
50496;BMP280;38806;51.554;5.704;2022-07-09T05:46:00;101424.81;;;16.81
50496;BMP280;38806;51.554;5.704;2022-07-09T05:48:07;101412.28;;;17.02
50496;BMP280;38806;51.554;5.704;2022-07-09T05:50:07;101460.19;;;17.05
50496;BMP280;38806;51.554;5.704;2022-07-09T05:52:08;101411.19;;;17.35
50496;BMP280;38806;51.554;5.704;2022-07-09T05:54:25;101494.19;;;17.36
50496;BMP280;38806;51.554;5.704;2022-07-09T05:56:31;101504.75;;;17.45
50496;BMP280;38806;51.554;5.704;2022-07-09T05:58:35;101537.88;;;17.49
50496;BMP280;38806;51.554;5.704;2022-07-09T06:00:44;101579.75;;;17.41
50496;BMP280;38806;51.554;5.704;2022-07-09T06:02:48;101611.09;;;17.42
50496;BMP280;38806;51.554;5.704;2022-07-09T06:04:52;101630.19;;;17.36
50496;BMP280;38806;51.554;5.704;2022-07-09T06:06:59;101654.75;;;17.31
50496;BMP280;38806;51.554;5.704;2022-07-09T06:09:06;101627.72;;;17.38
50496;BMP280;38806;51.554;5.704;2022-07-09T06:11:07;101591.06;;;17.45
50496;BMP280;38806;51.554;5.704;2022-07-09T06:13:07;101549.44;;;17.55
50496;BMP280;38806;51.554;5.704;2022-07-09T06:15:11;101574.88;;;17.58
50496;BMP280;38806;51.554;5.704;2022-07-09T06:17:21;101594.41;;;17.56
50496;BMP280;38806;51.554;5.704;2022-07-09T06:19:25;101569.47;;;17.77
50496;BMP280;38806;51.554;5.704;2022-07-09T06:21:26;101614.44;;;17.83
50496;BMP280;38806;51.554;5.704;2022-07-09T06:23:27;101622.06;;;18.09
50496;BMP280;38806;51.554;5.704;2022-07-09T06:25:27;101619.91;;;18.26
50496;BMP280;38806;51.554;5.704;2022-07-09T06:27:28;101523.22;;;18.52
50496;BMP280;38806;51.554;5.704;2022-07-09T06:29:28;101458.72;;;18.73
50496;BMP280;38806;51.554;5.704;2022-07-09T06:31:29;101606.47;;;18.66
50496;BMP280;38806;51.554;5.704;2022-07-09T06:33:29;101526.50;;;18.95
50496;BMP280;38806;51.554;5.704;2022-07-09T06:35:30;101519.81;;;18.96
50496;BMP280;38806;51.554;5.704;2022-07-09T06:37:31;101518.56;;;19.24
50496;BMP280;38806;51.554;5.704;2022-07-09T06:39:34;101810.81;;;18.96
50496;BMP280;38806;51.554;5.704;2022-07-09T06:42:05;101812.28;;;19.16
50496;BMP280;38806;51.554;5.704;2022-07-09T06:44:06;101839.75;;;19.18
50496;BMP280;38806;51.554;5.704;2022-07-09T06:46:07;102027.81;;;19.10
50496;BMP280;38806;51.554;5.704;2022-07-09T06:48:07;102144.66;;;19.00
50496;BMP280;38806;51.554;5.704;2022-07-09T06:50:07;102166.34;;;18.87
50496;BMP280;38806;51.554;5.704;2022-07-09T06:52:09;102099.56;;;18.94
50496;BMP280;38806;51.554;5.704;2022-07-09T06:54:10;102224.06;;;18.86
50496;BMP280;38806;51.554;5.704;2022-07-09T06:56:11;102202.13;;;19.08
50496;BMP280;38806;51.554;5.704;2022-07-09T06:58:12;102211.59;;;19.37
50496;BMP280;38806;51.554;5.704;2022-07-09T07:00:13;102268.34;;;19.44
50496;BMP280;38806;51.554;5.704;2022-07-09T07:02:14;102168.09;;;19.50
50496;BMP280;38806;51.554;5.704;2022-07-09T07:04:22;102504.16;;;19.07
50496;BMP280;38806;51.554;5.704;2022-07-09T07:06:22;102273.53;;;19.47
50496;BMP280;38806;51.554;5.704;2022-07-09T07:08:23;102279.75;;;19.78
50496;BMP280;38806;51.554;5.704;2022-07-09T07:10:24;102456.47;;;19.83
50496;BMP280;38806;51.554;5.704;2022-07-09T07:12:29;102317.38;;;19.91
50496;BMP280;38806;51.554;5.704;2022-07-09T07:14:30;102363.88;;;19.85
50496;BMP280;38806;51.554;5.704;2022-07-09T07:16:30;102464.78;;;19.61
50496;BMP280;38806;51.554;5.704;2022-07-09T07:18:34;102312.81;;;19.74
50496;BMP280;38806;51.554;5.704;2022-07-09T07:20:35;102467.47;;;19.72
50496;BMP280;38806;51.554;5.704;2022-07-09T07:22:35;102563.34;;;19.57
50496;BMP280;38806;51.554;5.704;2022-07-09T07:24:36;102515.41;;;19.62
50496;BMP280;38806;51.554;5.704;2022-07-09T07:26:36;102496.91;;;19.90
50496;BMP280;38806;51.554;5.704;2022-07-09T07:28:37;102581.13;;;19.86
50496;BMP280;38806;51.554;5.704;2022-07-09T07:30:37;102472.88;;;20.18
50496;BMP280;38806;51.554;5.704;2022-07-09T07:32:38;102529.81;;;20.44
50496;BMP280;38806;51.554;5.704;2022-07-09T07:34:39;102532.91;;;21.14
50496;BMP280;38806;51.554;5.704;2022-07-09T07:36:39;102639.97;;;21.34
50496;BMP280;38806;51.554;5.704;2022-07-09T07:38:40;102602.94;;;21.52
50496;BMP280;38806;51.554;5.704;2022-07-09T07:40:40;102614.38;;;22.12
50496;BMP280;38806;51.554;5.704;2022-07-09T07:42:48;102628.28;;;22.78
50496;BMP280;38806;51.554;5.704;2022-07-09T07:44:55;102725.91;;;23.06
50496;BMP280;38806;51.554;5.704;2022-07-09T07:46:56;102791.53;;;23.22
50496;BMP280;38806;51.554;5.704;2022-07-09T07:48:56;102773.16;;;23.30
50496;BMP280;38806;51.554;5.704;2022-07-09T07:51:07;102778.53;;;23.23
50496;BMP280;38806;51.554;5.704;2022-07-09T07:53:08;102876.72;;;22.42
50496;BMP280;38806;51.554;5.704;2022-07-09T07:55:09;102762.03;;;23.10
50496;BMP280;38806;51.554;5.704;2022-07-09T07:57:10;102788.66;;;23.15
50496;BMP280;38806;51.554;5.704;2022-07-09T07:59:10;102739.28;;;22.96
50496;BMP280;38806;51.554;5.704;2022-07-09T08:01:11;102833.78;;;22.63
50496;BMP280;38806;51.554;5.704;2022-07-09T08:03:11;102710.94;;;22.75
50496;BMP280;38806;51.554;5.704;2022-07-09T08:05:12;102893.63;;;22.22
50496;BMP280;38806;51.554;5.704;2022-07-09T08:07:13;102932.31;;;21.53
50496;BMP280;38806;51.554;5.704;2022-07-09T08:09:23;102775.38;;;21.88
50496;BMP280;38806;51.554;5.704;2022-07-09T08:11:24;102793.09;;;22.48
50496;BMP280;38806;51.554;5.704;2022-07-09T08:13:25;102827.72;;;22.51
50496;BMP280;38806;51.554;5.704;2022-07-09T08:15:26;102707.41;;;22.61
50496;BMP280;38806;51.554;5.704;2022-07-09T08:17:27;102633.00;;;23.62
50496;BMP280;38806;51.554;5.704;2022-07-09T08:19:33;102667.06;;;24.27
50496;BMP280;38806;51.554;5.704;2022-07-09T08:21:34;102894.16;;;23.70
50496;BMP280;38806;51.554;5.704;2022-07-09T08:23:34;102857.31;;;25.27
50496;BMP280;38806;51.554;5.704;2022-07-09T08:26:00;102664.56;;;26.01
50496;BMP280;38806;51.554;5.704;2022-07-09T08:28:07;102858.19;;;26.00
50496;BMP280;38806;51.554;5.704;2022-07-09T08:30:08;102715.44;;;27.37
50496;BMP280;38806;51.554;5.704;2022-07-09T08:32:15;102934.25;;;26.74
50496;BMP280;38806;51.554;5.704;2022-07-09T08:34:22;102693.47;;;28.11
50496;BMP280;38806;51.554;5.704;2022-07-09T08:36:22;102779.25;;;28.11
50496;BMP280;38806;51.554;5.704;2022-07-09T08:38:23;103009.88;;;26.00
50496;BMP280;38806;51.554;5.704;2022-07-09T08:40:25;102953.69;;;26.46
50496;BMP280;38806;51.554;5.704;2022-07-09T08:42:26;102616.00;;;28.80
50496;BMP280;38806;51.554;5.704;2022-07-09T08:44:29;102597.13;;;29.86
50496;BMP280;38806;51.554;5.704;2022-07-09T08:46:33;102780.59;;;29.46
50496;BMP280;38806;51.554;5.704;2022-07-09T08:48:35;102715.09;;;29.23
50496;BMP280;38806;51.554;5.704;2022-07-09T08:50:37;102581.06;;;30.51
50496;BMP280;38806;51.554;5.704;2022-07-09T08:52:42;103095.09;;;27.62
50496;BMP280;38806;51.554;5.704;2022-07-09T08:54:52;102792.19;;;27.61
50496;BMP280;38806;51.554;5.704;2022-07-09T08:56:53;102760.78;;;28.63
50496;BMP280;38806;51.554;5.704;2022-07-09T08:59:00;102666.75;;;29.44
50496;BMP280;38806;51.554;5.704;2022-07-09T09:01:07;102763.16;;;28.84
50496;BMP280;38806;51.554;5.704;2022-07-09T09:03:09;102815.25;;;28.03
50496;BMP280;38806;51.554;5.704;2022-07-09T09:05:12;102763.28;;;28.69
50496;BMP280;38806;51.554;5.704;2022-07-09T09:07:19;102789.38;;;28.83
50496;BMP280;38806;51.554;5.704;2022-07-09T09:09:24;102738.97;;;29.02
50496;BMP280;38806;51.554;5.704;2022-07-09T09:11:31;102671.41;;;29.41
50496;BMP280;38806;51.554;5.704;2022-07-09T09:13:44;102752.88;;;28.77
50496;BMP280;38806;51.554;5.704;2022-07-09T09:15:44;102878.25;;;28.28
50496;BMP280;38806;51.554;5.704;2022-07-09T09:17:51;102859.25;;;28.17
50496;BMP280;38806;51.554;5.704;2022-07-09T09:19:58;102915.34;;;27.54
50496;BMP280;38806;51.554;5.704;2022-07-09T09:22:05;102860.53;;;28.23
50496;BMP280;38806;51.554;5.704;2022-07-09T09:24:07;103027.69;;;26.55
50496;BMP280;38806;51.554;5.704;2022-07-09T09:26:19;102901.69;;;26.73
50496;BMP280;38806;51.554;5.704;2022-07-09T09:28:21;102909.19;;;26.65
50496;BMP280;38806;51.554;5.704;2022-07-09T09:30:23;102808.00;;;26.90
50496;BMP280;38806;51.554;5.704;2022-07-09T09:32:25;102881.81;;;26.82
50496;BMP280;38806;51.554;5.704;2022-07-09T09:34:26;102800.09;;;27.65
50496;BMP280;38806;51.554;5.704;2022-07-09T09:36:38;102754.28;;;27.46
50496;BMP280;38806;51.554;5.704;2022-07-09T09:38:39;102939.78;;;25.95
50496;BMP280;38806;51.554;5.704;2022-07-09T09:40:46;102798.59;;;26.63
50496;BMP280;38806;51.554;5.704;2022-07-09T09:42:49;102822.88;;;26.57
50496;BMP280;38806;51.554;5.704;2022-07-09T09:44:59;102956.00;;;24.82
50496;BMP280;38806;51.554;5.704;2022-07-09T09:47:00;103013.50;;;24.06
50496;BMP280;38806;51.554;5.704;2022-07-09T09:49:05;102806.72;;;24.55
50496;BMP280;38806;51.554;5.704;2022-07-09T09:51:09;102792.25;;;24.96
50496;BMP280;38806;51.554;5.704;2022-07-09T09:53:11;102922.59;;;25.12
50496;BMP280;38806;51.554;5.704;2022-07-09T09:55:20;102872.19;;;24.09
50496;BMP280;38806;51.554;5.704;2022-07-09T09:57:21;102969.88;;;23.33
50496;BMP280;38806;51.554;5.704;2022-07-09T09:59:37;102824.63;;;23.43
50496;BMP280;38806;51.554;5.704;2022-07-09T10:01:40;102795.06;;;23.36
50496;BMP280;38806;51.554;5.704;2022-07-09T10:03:43;102817.38;;;23.14
50496;BMP280;38806;51.554;5.704;2022-07-09T10:05:50;102804.81;;;23.76
50496;BMP280;38806;51.554;5.704;2022-07-09T10:07:51;102787.06;;;23.91
50496;BMP280;38806;51.554;5.704;2022-07-09T10:09:59;102822.25;;;24.32
50496;BMP280;38806;51.554;5.704;2022-07-09T10:12:07;102575.03;;;25.72
50496;BMP280;38806;51.554;5.704;2022-07-09T10:14:16;102690.00;;;26.22
50496;BMP280;38806;51.554;5.704;2022-07-09T10:16:17;102584.91;;;27.21
50496;BMP280;38806;51.554;5.704;2022-07-09T10:18:18;102734.94;;;25.79
50496;BMP280;38806;51.554;5.704;2022-07-09T10:20:34;102712.94;;;25.51
50496;BMP280;38806;51.554;5.704;2022-07-09T10:22:44;102709.50;;;26.32
50496;BMP280;38806;51.554;5.704;2022-07-09T10:24:52;102873.13;;;24.38
50496;BMP280;38806;51.554;5.704;2022-07-09T10:27:24;102868.66;;;24.22
50496;BMP280;38806;51.554;5.704;2022-07-09T10:29:26;102670.81;;;25.07
50496;BMP280;38806;51.554;5.704;2022-07-09T10:31:28;102650.91;;;25.80
50496;BMP280;38806;51.554;5.704;2022-07-09T10:33:38;102620.84;;;26.36
50496;BMP280;38806;51.554;5.704;2022-07-09T10:35:56;102782.69;;;25.18
50496;BMP280;38806;51.554;5.704;2022-07-09T10:38:03;102720.63;;;25.96
50496;BMP280;38806;51.554;5.704;2022-07-09T10:42:19;102632.91;;;25.87
50496;BMP280;38806;51.554;5.704;2022-07-09T10:44:27;102714.09;;;26.37
50496;BMP280;38806;51.554;5.704;2022-07-09T10:46:29;102748.91;;;25.17
50496;BMP280;38806;51.554;5.704;2022-07-09T10:48:31;102822.00;;;24.30
50496;BMP280;38806;51.554;5.704;2022-07-09T10:50:36;102620.84;;;24.75
50496;BMP280;38806;51.554;5.704;2022-07-09T10:52:40;102767.88;;;24.11
50496;BMP280;38806;51.554;5.704;2022-07-09T10:54:47;102669.63;;;24.12
50496;BMP280;38806;51.554;5.704;2022-07-09T10:56:49;102749.72;;;24.08
50496;BMP280;38806;51.554;5.704;2022-07-09T10:58:56;102706.34;;;24.14
50496;BMP280;38806;51.554;5.704;2022-07-09T11:00:59;102574.84;;;25.26
50496;BMP280;38806;51.554;5.704;2022-07-09T11:03:07;102792.84;;;25.02
50496;BMP280;38806;51.554;5.704;2022-07-09T11:05:08;102772.56;;;25.13
50496;BMP280;38806;51.554;5.704;2022-07-09T11:07:18;102903.81;;;25.10
50496;BMP280;38806;51.554;5.704;2022-07-09T11:09:19;102958.06;;;25.15
50496;BMP280;38806;51.554;5.704;2022-07-09T11:11:26;102860.75;;;24.79
50496;BMP280;38806;51.554;5.704;2022-07-09T11:13:27;102756.69;;;25.55
50496;BMP280;38806;51.554;5.704;2022-07-09T11:15:35;102835.44;;;25.01
50496;BMP280;38806;51.554;5.704;2022-07-09T11:17:39;102741.50;;;25.69
50496;BMP280;38806;51.554;5.704;2022-07-09T11:19:43;102914.38;;;24.38
50496;BMP280;38806;51.554;5.704;2022-07-09T11:21:49;102852.81;;;24.15
50496;BMP280;38806;51.554;5.704;2022-07-09T11:23:50;102759.09;;;25.30
50496;BMP280;38806;51.554;5.704;2022-07-09T11:25:57;102690.09;;;25.43
50496;BMP280;38806;51.554;5.704;2022-07-09T11:28:04;102786.22;;;25.47
50496;BMP280;38806;51.554;5.704;2022-07-09T11:30:05;102596.19;;;26.22
50496;BMP280;38806;51.554;5.704;2022-07-09T11:32:06;102894.47;;;24.92
50496;BMP280;38806;51.554;5.704;2022-07-09T11:34:06;102876.63;;;24.73
50496;BMP280;38806;51.554;5.704;2022-07-09T11:36:20;102754.03;;;25.41
50496;BMP280;38806;51.554;5.704;2022-07-09T11:38:20;102684.84;;;26.26
50496;BMP280;38806;51.554;5.704;2022-07-09T11:40:24;102834.03;;;25.85
50496;BMP280;38806;51.554;5.704;2022-07-09T11:42:25;102910.97;;;25.47